»·PEaware :: N1507M KOLS-KPHX

N1507M :: KOLS-KPHX

FLIGHT INFORMATION

Flight Status: Arrived
Operator: Privately registered:
United States
More flights under this callsign
Pilot: Matthew M. (8235)
Aircraft: SOCATA TBM-900
(TBM9)
More flights by this aircraft type
Origin: KOLS Nogales Intl
United States
Destination: KPHX Phoenix Sky Harbor Intl
United States
More flights between these airports :: More routes between these airports
Route:
File this flight plan on PilotEdge
Remarks:
Altitude:
(Current/Filed)
10,500ft
Speed:
(Current/Filed)
280kts
Departed: 29-Sep-20 10:31 AM
Arrived: 29-Sep-20 11:07 AM
Distance/Time
Traveled:
134nm/0:35
Distance/Time
To Go:
Arrived

Flight Plot

Page will automatically refresh every two minutes.

Flight plan parsing failed; only flown route is shown


Map Options




Map Legend


Flown Route
Filed Route
Departure Airport
Arrival Airport
Navaid (VOR, NDB)
Fix

Horizontal Profiles

Position Reports

Time Latitude Longitude Heading Altitude Ground
Speed
29-Sep-20 10:27 31.418730 -110.848930 269 3898ft 0kts
29-Sep-20 10:28 31.418730 -110.848930 269 3898ft 0kts
29-Sep-20 10:29 31.418929 -110.848886 76 3899ft 6kts
29-Sep-20 10:30 31.417711 -110.847888 227 3898ft 56kts
29-Sep-20 10:31 31.420639 -110.870667 8 5774ft 144kts
29-Sep-20 10:32 31.464850 -110.870752 333 8167ft 177kts
29-Sep-20 10:33 31.510471 -110.897154 335 10343ft 184kts
29-Sep-20 10:34 31.567033 -110.929228 335 10531ft 252kts
29-Sep-20 10:35 31.633187 -110.966752 335 10519ft 265kts
29-Sep-20 10:36 31.700560 -111.005005 335 10512ft 265kts
29-Sep-20 10:37 31.767294 -111.042953 335 10477ft 263kts
29-Sep-20 10:38 31.833616 -111.080718 335 10442ft 259kts
29-Sep-20 10:39 31.898560 -111.117745 334 10434ft 256kts
29-Sep-20 10:40 31.962591 -111.154368 334 10434ft 254kts
29-Sep-20 10:41 32.026582 -111.190996 334 10433ft 254kts
29-Sep-20 10:42 32.090869 -111.227847 334 10433ft 254kts
29-Sep-20 10:43 32.156119 -111.265308 334 10436ft 254kts
29-Sep-20 10:44 32.220878 -111.302548 334 10421ft 255kts
29-Sep-20 10:45 32.285304 -111.339656 334 10403ft 255kts
29-Sep-20 10:46 32.349425 -111.376645 334 10390ft 255kts
29-Sep-20 10:47 32.413791 -111.413836 334 10390ft 255kts
29-Sep-20 10:48 32.477882 -111.450927 334 10389ft 255kts
29-Sep-20 10:49 32.542155 -111.488180 334 10389ft 255kts
29-Sep-20 10:50 32.606252 -111.525392 334 10389ft 255kts
29-Sep-20 10:51 32.669151 -111.562020 334 9116ft 246kts
29-Sep-20 10:52 32.731048 -111.598088 336 6647ft 243kts
29-Sep-20 10:53 32.787075 -111.640516 330 6401ft 241kts
29-Sep-20 10:54 32.844375 -111.684759 329 6535ft 245kts
29-Sep-20 10:55 32.902553 -111.729578 329 6534ft 247kts
29-Sep-20 10:56 32.961993 -111.775415 329 6075ft 256kts
29-Sep-20 10:57 33.022802 -111.822000 329 5558ft 259kts
29-Sep-20 10:58 33.085069 -111.868560 329 5040ft 262kts
29-Sep-20 10:59 33.147967 -111.913577 335 4544ft 251kts
29-Sep-20 11:00 33.207535 -111.948966 335 4423ft 233kts
29-Sep-20 11:01 33.268054 -111.981399 340 3920ft 237kts
29-Sep-20 11:02 33.329323 -112.010212 340 3369ft 227kts
29-Sep-20 11:03 33.381432 -112.036805 332 2321ft 164kts
29-Sep-20 11:04 33.413020 -112.045628 2 2013ft 93kts
29-Sep-20 11:06 33.428881 -112.029614 91 1230ft 78kts
29-Sep-20 11:07 33.427746 -112.017173 265 1114ft 24kts
29-Sep-20 11:08 33.427015 -112.020273 226 1112ft 0kts
29-Sep-20 11:09 33.427015 -112.020273 226 1112ft 0kts
29-Sep-20 11:10 33.427015 -112.020273 226 1112ft 0kts
29-Sep-20 11:11 33.427015 -112.020273 226 1112ft 0kts
29-Sep-20 11:12 33.427015 -112.020273 226 1112ft 0kts
29-Sep-20 11:13 33.427015 -112.020273 226 1112ft 0kts
29-Sep-20 11:14 33.427015 -112.020273 226 1112ft 0kts
29-Sep-20 11:15 33.427015 -112.020273 226 1112ft 0kts
29-Sep-20 11:16 33.427015 -112.020273 226 1112ft 0kts
29-Sep-20 11:17 33.427015 -112.020273 226 1112ft 0kts
29-Sep-20 11:18 33.427015 -112.020273 226 1112ft 0kts
29-Sep-20 11:19 33.427015 -112.020273 226 1112ft 0kts
29-Sep-20 11:20 33.427015 -112.020273 226 1112ft 0kts
29-Sep-20 11:20 33.427015 -112.020273 226 1112ft 0kts

Navigation Log

Ident Type
Flight plan parsing failed, navigation log unavailable